createdAt,value
2023-11-14T00:00:01.327Z,5.41
2023-11-14T00:02:28.533Z,5.45
2023-11-14T00:04:55.901Z,5.15
2023-11-14T00:07:23.229Z,5.35
2023-11-14T00:09:50.641Z,5.22
2023-11-14T00:12:22.309Z,4.99
2023-11-14T00:14:49.962Z,5.37
2023-11-14T00:17:17.331Z,5.42
2023-11-14T00:19:44.976Z,5.50
2023-11-14T00:22:12.408Z,5.44
2023-11-14T00:24:39.862Z,5.13
2023-11-14T00:27:07.197Z,4.98
2023-11-14T00:29:34.378Z,4.15
2023-11-14T00:32:01.849Z,5.43
2023-11-14T00:34:30.955Z,5.02
2023-11-14T00:36:59.504Z,5.43
2023-11-14T00:39:28.793Z,5.15
2023-11-14T00:41:56.200Z,5.37
2023-11-14T00:44:23.697Z,5.19
2023-11-14T00:47:09.604Z,5.23
2023-11-14T00:49:36.921Z,4.92
2023-11-14T00:52:04.665Z,5.47
2023-11-14T00:54:32.750Z,5.40
2023-11-14T00:56:59.998Z,4.63
2023-11-14T00:59:28.191Z,5.39
2023-11-14T01:01:56.553Z,4.98
2023-11-14T01:04:24.924Z,4.67
2023-11-14T01:06:52.201Z,4.90
2023-11-14T01:09:20.199Z,5.32
2023-11-14T01:11:48.237Z,5.49
2023-11-14T01:14:15.611Z,4.28
2023-11-14T01:16:43.619Z,5.08
2023-11-14T01:19:11.466Z,5.17
2023-11-14T01:21:39.026Z,4.13
2023-11-14T01:24:07.106Z,5.27
2023-11-14T01:26:38.040Z,4.83
2023-11-14T01:29:06.347Z,4.89
2023-11-14T01:31:34.874Z,4.02
2023-11-14T01:34:04.295Z,5.27
2023-11-14T01:36:31.686Z,4.97
2023-11-14T01:38:59.239Z,4.59
2023-11-14T01:41:26.837Z,4.96
2023-11-14T01:43:54.434Z,5.23
2023-11-14T01:46:23.074Z,4.98
2023-11-14T01:48:52.370Z,4.77
2023-11-14T01:51:21.934Z,4.32
2023-11-14T01:53:51.145Z,5.12
2023-11-14T01:56:20.632Z,4.87
2023-11-14T01:58:50.358Z,4.73
2023-11-14T02:01:18.522Z,4.76
2023-11-14T02:03:46.078Z,5.09
2023-11-14T02:06:13.386Z,3.65
2023-11-14T02:08:41.250Z,5.20
2023-11-14T02:11:08.810Z,4.90
2023-11-14T02:13:36.595Z,5.20
2023-11-14T02:16:04.572Z,4.20
2023-11-14T02:18:32.829Z,4.82
2023-11-14T02:21:00.235Z,5.27
2023-11-14T02:23:30.216Z,4.91
2023-11-14T02:25:57.801Z,4.15
2023-11-14T02:28:25.954Z,5.25
2023-11-14T02:30:53.338Z,5.23
2023-11-14T02:33:20.791Z,5.46
2023-11-14T02:35:48.326Z,5.17
2023-11-14T02:38:15.608Z,5.35
2023-11-14T02:40:47.915Z,4.69
2023-11-14T02:43:15.127Z,5.00
2023-11-14T02:45:44.231Z,5.00
2023-11-14T02:48:11.581Z,5.25
2023-11-14T02:50:56.161Z,5.33
2023-11-14T02:53:24.260Z,4.75
2023-11-14T02:55:52.614Z,4.83
2023-11-14T02:58:20.934Z,4.84
2023-11-14T03:00:55.338Z,4.79
2023-11-14T03:03:22.797Z,5.20
2023-11-14T03:05:50.463Z,5.12
2023-11-14T03:08:17.608Z,4.05
2023-11-14T03:10:45.767Z,5.01
2023-11-14T03:13:13.127Z,5.06
2023-11-14T03:15:43.237Z,4.65
2023-11-14T03:18:10.683Z,5.17
2023-11-14T03:20:38.246Z,4.79
2023-11-14T03:23:05.730Z,4.74
2023-11-14T03:25:33.802Z,5.42
2023-11-14T03:28:05.186Z,4.98
2023-11-14T03:30:34.104Z,5.29
2023-11-14T03:33:01.653Z,4.69
2023-11-14T03:35:29.297Z,4.84
2023-11-14T03:37:57.348Z,4.81
2023-11-14T03:40:24.882Z,4.86
2023-11-14T03:42:52.230Z,5.11
2023-11-14T03:45:20.103Z,4.93
2023-11-14T03:47:47.775Z,4.79
2023-11-14T03:50:15.881Z,5.25
2023-11-14T03:52:45.313Z,4.13
2023-11-14T03:55:12.570Z,5.06
2023-11-14T03:57:39.842Z,4.79
2023-11-14T04:00:10.784Z,4.86
2023-11-14T04:02:41.974Z,5.31
2023-11-14T04:05:09.785Z,4.95
2023-11-14T04:07:37.429Z,5.23
2023-11-14T04:10:05.251Z,4.96
2023-11-14T04:12:32.585Z,4.36
2023-11-14T04:14:59.944Z,4.93
2023-11-14T04:17:27.372Z,4.88
2023-11-14T04:19:54.698Z,5.25
2023-11-14T04:22:22.038Z,4.53
2023-11-14T04:24:49.196Z,5.33
2023-11-14T04:27:18.094Z,5.04
2023-11-14T04:29:45.451Z,5.32
2023-11-14T04:32:12.832Z,5.40
2023-11-14T04:34:40.194Z,4.91
2023-11-14T04:37:10.713Z,3.94
2023-11-14T04:39:39.097Z,4.88
2023-11-14T04:42:09.390Z,5.03
2023-11-14T04:44:37.997Z,5.02
2023-11-14T04:47:07.479Z,5.18
2023-11-14T04:49:35.472Z,4.53
2023-11-14T04:52:03.803Z,4.64
2023-11-14T04:54:31.095Z,5.36
2023-11-14T04:56:59.300Z,5.34
2023-11-14T04:59:27.030Z,5.04
2023-11-14T05:01:54.561Z,5.49
2023-11-14T05:04:21.889Z,4.99
2023-11-14T05:06:50.943Z,5.02
2023-11-14T05:09:18.573Z,4.72
2023-11-14T05:11:45.889Z,5.13
2023-11-14T05:14:13.512Z,5.28
2023-11-14T05:16:42.071Z,5.22
2023-11-14T05:19:10.447Z,5.09
2023-11-14T05:21:41.282Z,4.88
2023-11-14T05:24:11.407Z,5.14
2023-11-14T05:26:38.900Z,4.73
2023-11-14T05:29:08.357Z,5.23
2023-11-14T05:31:37.038Z,5.01
2023-11-14T05:34:04.952Z,4.53
2023-11-14T05:36:32.502Z,4.83
2023-11-14T05:39:00.469Z,4.94
2023-11-14T05:41:27.749Z,4.43
2023-11-14T05:43:55.168Z,5.20
2023-11-14T05:46:22.712Z,5.08
2023-11-14T05:48:50.167Z,4.99
2023-11-14T05:51:17.877Z,4.93
2023-11-14T05:53:46.596Z,3.57
2023-11-14T05:56:14.133Z,5.14
2023-11-14T05:58:41.932Z,4.94
2023-11-14T06:01:11.458Z,5.32
2023-11-14T06:03:39.025Z,3.66
2023-11-14T06:06:06.742Z,3.59
2023-11-14T06:08:34.327Z,4.83
2023-11-14T06:11:01.942Z,4.36
2023-11-14T06:13:32.210Z,5.07
2023-11-14T06:15:59.835Z,5.15
2023-11-14T06:18:31.009Z,4.44
2023-11-14T06:21:00.689Z,5.11
2023-11-14T06:23:28.245Z,4.70
2023-11-14T06:25:57.708Z,5.53
2023-11-14T06:28:25.475Z,5.45
2023-11-14T06:30:53.147Z,5.09
2023-11-14T06:33:20.516Z,5.30
2023-11-14T06:35:50.829Z,5.50
2023-11-14T06:38:18.433Z,4.72
2023-11-14T06:40:47.103Z,5.11
2023-11-14T06:43:15.150Z,5.24
2023-11-14T06:45:43.921Z,3.88
2023-11-14T06:48:11.607Z,5.66
2023-11-14T06:50:44.641Z,4.35
2023-11-14T06:53:13.310Z,6.26
2023-11-14T06:55:41.787Z,6.35
2023-11-14T06:58:09.185Z,6.38
2023-11-14T07:00:42.240Z,6.38
2023-11-14T07:03:10.371Z,6.49
2023-11-14T07:05:38.023Z,6.65
2023-11-14T07:08:05.571Z,6.16
2023-11-14T07:10:34.427Z,6.41
2023-11-14T07:13:02.084Z,6.85
2023-11-14T07:15:29.925Z,6.79
2023-11-14T07:17:57.219Z,7.09
2023-11-14T07:20:25.748Z,7.27
2023-11-14T07:22:53.688Z,7.64
2023-11-14T07:25:21.166Z,7.40
2023-11-14T07:27:51.088Z,7.87
2023-11-14T07:30:18.539Z,7.72
2023-11-14T07:32:47.004Z,8.02
2023-11-14T07:35:14.606Z,8.17
2023-11-14T07:37:42.457Z,8.22
2023-11-14T07:40:10.550Z,8.67
2023-11-14T07:42:38.012Z,8.27
2023-11-14T07:45:11.268Z,7.94
2023-11-14T07:47:42.032Z,9.28
2023-11-14T07:50:09.794Z,9.11
2023-11-14T07:52:40.313Z,8.80
2023-11-14T07:55:12.161Z,9.00
2023-11-14T07:57:42.803Z,9.70
2023-11-14T08:00:14.927Z,9.75
2023-11-14T08:02:42.909Z,10.19
2023-11-14T08:05:10.855Z,9.69
2023-11-14T08:07:39.388Z,10.17
2023-11-14T08:10:07.433Z,10.44
2023-11-14T08:12:35.196Z,10.76
2023-11-14T08:15:05.986Z,9.28
2023-11-14T08:17:36.197Z,9.39
2023-11-14T08:20:06.994Z,10.25
2023-11-14T08:22:36.696Z,11.40
2023-11-14T08:25:13.232Z,10.51
2023-11-14T08:27:42.051Z,10.86
2023-11-14T08:30:13.947Z,10.64
2023-11-14T08:32:41.661Z,11.96
2023-11-14T08:35:09.497Z,12.04
2023-11-14T08:37:43.626Z,11.37
2023-11-14T08:40:11.482Z,11.97
2023-11-14T08:42:39.087Z,11.68
2023-11-14T08:45:07.850Z,11.33
2023-11-14T08:47:36.932Z,11.78
2023-11-14T08:50:08.028Z,12.52
2023-11-14T08:52:42.850Z,12.60
2023-11-14T08:55:18.139Z,11.81
2023-11-14T08:57:54.299Z,12.79
2023-11-14T09:00:24.575Z,12.32
2023-11-14T09:02:52.169Z,12.63
2023-11-14T09:05:20.023Z,11.78
2023-11-14T09:07:49.148Z,12.94
2023-11-14T09:10:16.455Z,13.25
2023-11-14T09:12:43.952Z,13.04
2023-11-14T09:15:14.980Z,12.94
2023-11-14T09:17:48.633Z,13.53
2023-11-14T09:20:19.865Z,13.41
2023-11-14T09:22:47.311Z,13.49
2023-11-14T09:25:15.450Z,13.59
2023-11-14T09:27:43.557Z,13.81
2023-11-14T09:30:12.554Z,13.64
2023-11-14T09:32:40.420Z,13.68
2023-11-14T09:35:08.766Z,13.76
2023-11-14T09:37:36.383Z,14.08
2023-11-14T09:40:08.014Z,14.13
2023-11-14T09:42:38.860Z,14.10
2023-11-14T09:45:07.471Z,14.30
2023-11-14T09:47:35.159Z,14.78
2023-11-14T09:50:02.734Z,14.36
2023-11-14T09:52:31.578Z,14.96
2023-11-14T09:54:59.658Z,14.85
2023-11-14T09:57:29.066Z,14.82
2023-11-14T09:59:57.998Z,14.83
2023-11-14T10:02:28.128Z,15.36
2023-11-14T10:05:03.589Z,15.40
2023-11-14T10:07:40.609Z,15.09
2023-11-14T10:10:08.582Z,15.63
2023-11-14T10:12:38.088Z,15.53
2023-11-14T10:15:06.567Z,15.56
2023-11-14T10:18:00.961Z,15.86
2023-11-14T10:20:48.846Z,15.94
2023-11-14T10:26:10.549Z,15.83
2023-11-14T10:28:52.376Z,16.00
2023-11-14T10:31:38.854Z,15.65
2023-11-14T10:34:29.412Z,16.11
2023-11-14T10:36:59.843Z,16.26
2023-11-14T10:39:29.724Z,16.38
2023-11-14T10:42:13.881Z,15.98
2023-11-14T10:45:01.329Z,16.62
2023-11-14T10:47:44.845Z,16.14
2023-11-14T10:50:29.331Z,16.70
2023-11-14T10:52:58.079Z,16.57
2023-11-14T10:55:26.357Z,16.30
2023-11-14T10:57:56.306Z,16.43
2023-11-14T11:00:24.148Z,16.52
2023-11-14T11:02:54.047Z,16.37
2023-11-14T11:05:30.626Z,16.87
2023-11-14T11:08:01.579Z,16.51
2023-11-14T11:10:36.914Z,17.05
2023-11-14T11:13:42.652Z,17.08
2023-11-14T11:16:10.200Z,16.86
2023-11-14T11:18:39.929Z,17.18
2023-11-14T11:21:15.657Z,16.93
2023-11-14T11:24:05.965Z,17.25
2023-11-14T11:26:33.628Z,17.23
2023-11-14T11:29:01.207Z,16.93
2023-11-14T11:31:28.712Z,17.35
2023-11-14T11:33:56.490Z,17.03
2023-11-14T11:36:29.552Z,17.10
2023-11-14T11:39:00.521Z,17.32
2023-11-14T11:41:34.206Z,16.93
2023-11-14T11:44:12.574Z,17.35
2023-11-14T11:46:46.041Z,16.96
2023-11-14T11:49:18.249Z,17.39
2023-11-14T11:51:49.204Z,17.33
2023-11-14T11:54:28.778Z,17.52
2023-11-14T11:57:13.258Z,16.80
2023-11-14T11:59:43.694Z,17.31
2023-11-14T12:02:13.295Z,16.72
2023-11-14T12:04:42.169Z,17.20
2023-11-14T12:07:10.395Z,15.74
2023-11-14T12:09:38.687Z,16.79
2023-11-14T12:12:06.301Z,16.54
2023-11-14T12:14:33.761Z,16.55
2023-11-14T12:17:01.823Z,16.67
2023-11-14T12:19:29.447Z,16.96
2023-11-14T12:21:57.989Z,17.02
2023-11-14T12:24:25.824Z,16.60
2023-11-14T12:26:53.546Z,16.57
2023-11-14T12:29:20.828Z,17.06
2023-11-14T12:31:49.206Z,17.07
2023-11-14T12:34:32.956Z,17.20
2023-11-14T12:37:13.965Z,17.23
2023-11-14T12:39:41.390Z,17.07
2023-11-14T12:42:11.039Z,17.12
2023-11-14T12:44:38.382Z,17.37
2023-11-14T12:47:09.957Z,17.31
2023-11-14T12:49:48.904Z,17.18
2023-11-14T12:52:16.299Z,16.90
2023-11-14T12:54:43.519Z,16.93
2023-11-14T12:57:12.744Z,17.33
2023-11-14T12:59:43.021Z,17.03
2023-11-14T13:02:11.232Z,17.12
2023-11-14T13:04:38.745Z,17.48
2023-11-14T13:07:05.975Z,17.28
2023-11-14T13:09:33.619Z,17.61
2023-11-14T13:12:02.194Z,17.52
2023-11-14T13:14:29.551Z,17.41
2023-11-14T13:16:56.804Z,17.54
2023-11-14T13:19:24.141Z,17.26
2023-11-14T13:21:54.653Z,17.53
2023-11-14T13:24:21.972Z,17.52
2023-11-14T13:26:49.625Z,17.45
2023-11-14T13:29:17.978Z,17.04
2023-11-14T13:31:45.375Z,16.93
2023-11-14T13:34:12.628Z,17.08
2023-11-14T13:36:40.812Z,17.30
2023-11-14T13:39:08.020Z,17.25
2023-11-14T13:44:06.338Z,16.77
2023-11-14T13:46:33.912Z,16.68
2023-11-14T13:49:01.305Z,16.80
2023-11-14T13:51:30.614Z,16.40
2023-11-14T13:53:58.023Z,16.28
2023-11-14T13:56:27.093Z,16.32
2023-11-14T13:58:56.474Z,15.89
2023-11-14T14:01:26.649Z,16.07
2023-11-14T14:03:54.038Z,15.56
2023-11-14T14:06:21.507Z,15.99
2023-11-14T14:08:48.970Z,15.57
2023-11-14T14:11:19.476Z,15.54
2023-11-14T14:13:47.708Z,15.77
2023-11-14T14:16:18.332Z,14.73
2023-11-14T14:18:46.329Z,14.52
2023-11-14T14:21:16.460Z,15.46
2023-11-14T14:23:49.317Z,14.96
2023-11-14T14:26:17.175Z,14.82
2023-11-14T14:28:44.501Z,14.97
2023-11-14T14:31:20.062Z,13.91
2023-11-14T14:33:48.086Z,15.10
2023-11-14T14:36:16.787Z,14.88
2023-11-14T14:38:47.809Z,14.70
2023-11-14T14:41:17.674Z,12.31
2023-11-14T14:43:48.711Z,14.20
2023-11-14T14:46:16.906Z,13.47
2023-11-14T14:48:45.241Z,14.28
2023-11-14T14:51:13.797Z,14.42
2023-11-14T14:53:43.683Z,14.18
2023-11-14T14:56:11.376Z,13.99
2023-11-14T14:58:38.867Z,13.03
2023-11-14T15:01:06.271Z,13.36
2023-11-14T15:03:33.523Z,13.71
2023-11-14T15:06:01.410Z,12.21
2023-11-14T15:08:28.751Z,13.65
2023-11-14T15:10:56.516Z,13.03
2023-11-14T15:13:23.856Z,13.21
2023-11-14T15:15:52.366Z,13.08
2023-11-14T15:18:20.303Z,13.12
2023-11-14T15:20:47.975Z,13.15
2023-11-14T15:23:15.414Z,13.07
2023-11-14T15:25:45.417Z,12.92
2023-11-14T15:28:12.941Z,13.13
2023-11-14T15:30:40.364Z,12.33
2023-11-14T15:33:09.021Z,12.66
2023-11-14T15:35:36.934Z,12.96
2023-11-14T15:38:04.322Z,12.71
2023-11-14T15:40:32.057Z,12.55
2023-11-14T15:43:00.502Z,12.83
2023-11-14T15:45:30.702Z,12.43
2023-11-14T15:47:58.112Z,12.54
2023-11-14T15:50:26.481Z,12.43
2023-11-14T15:52:54.018Z,12.50
2023-11-14T15:55:21.348Z,12.40
2023-11-14T15:57:50.943Z,12.39
2023-11-14T16:00:18.608Z,12.37
2023-11-14T16:02:46.434Z,12.16
2023-11-14T16:05:13.982Z,12.07
2023-11-14T16:07:41.513Z,12.09
2023-11-14T16:10:09.172Z,12.02
2023-11-14T16:12:36.616Z,11.80
2023-11-14T16:15:04.479Z,9.74
2023-11-14T16:17:35.035Z,11.86
2023-11-14T16:20:02.580Z,11.42
2023-11-14T16:22:29.782Z,11.06
2023-11-14T16:24:57.252Z,11.78
2023-11-14T16:27:24.499Z,11.34
2023-11-14T16:29:51.820Z,11.27
2023-11-14T16:32:21.568Z,11.27
2023-11-14T16:34:49.181Z,11.10
2023-11-14T16:37:18.031Z,11.64
2023-11-14T16:39:45.658Z,10.84
2023-11-14T16:42:13.158Z,10.52
2023-11-14T16:44:40.574Z,11.23
2023-11-14T16:47:09.473Z,10.19
2023-11-14T16:49:38.245Z,10.87
2023-11-14T16:52:07.794Z,9.89
2023-11-14T16:54:35.180Z,10.38
2023-11-14T16:57:04.199Z,9.88
2023-11-14T16:59:31.558Z,10.61
2023-11-14T17:01:59.211Z,10.60
2023-11-14T17:04:29.649Z,10.89
2023-11-14T17:06:58.257Z,10.89
2023-11-14T17:09:25.915Z,10.02
2023-11-14T17:11:53.330Z,10.84
2023-11-14T17:14:20.762Z,10.65
2023-11-14T17:16:48.148Z,10.51
2023-11-14T17:19:15.816Z,10.63
2023-11-14T17:21:43.218Z,10.80
2023-11-14T17:24:10.678Z,10.35
2023-11-14T17:26:38.217Z,10.44
2023-11-14T17:29:06.003Z,10.51
2023-11-14T17:31:33.737Z,9.62
2023-11-14T17:34:01.935Z,10.10
2023-11-14T17:36:29.374Z,8.79
2023-11-14T17:38:56.925Z,10.29
2023-11-14T17:41:28.199Z,9.04
2023-11-14T17:43:57.350Z,9.78
2023-11-14T17:46:28.360Z,9.96
2023-11-14T17:48:58.696Z,10.19
2023-11-14T17:51:34.978Z,9.17
2023-11-14T17:54:06.477Z,9.75
2023-11-14T17:56:33.970Z,9.42
2023-11-14T17:59:02.183Z,10.14
2023-11-14T18:01:30.803Z,9.74
2023-11-14T18:04:00.933Z,9.57
2023-11-14T18:06:29.764Z,9.60
2023-11-14T18:08:57.300Z,8.65
2023-11-14T18:11:27.233Z,10.15
2023-11-14T18:13:55.641Z,9.80
2023-11-14T18:16:23.595Z,9.79
2023-11-14T18:18:51.498Z,9.61
2023-11-14T18:21:19.114Z,9.94
2023-11-14T18:23:46.586Z,9.61
2023-11-14T18:26:14.096Z,9.67
2023-11-14T18:28:42.811Z,9.70
2023-11-14T18:31:11.426Z,8.61
2023-11-14T18:33:38.894Z,10.09
2023-11-14T18:36:08.273Z,9.06
2023-11-14T18:38:38.236Z,10.07
2023-11-14T18:41:06.762Z,9.95
2023-11-14T18:43:34.244Z,9.49
2023-11-14T18:46:01.614Z,9.70
2023-11-14T18:48:29.189Z,9.82
2023-11-14T18:50:57.212Z,9.56
2023-11-14T18:53:25.591Z,9.13
2023-11-14T18:55:55.757Z,9.12
2023-11-14T18:58:24.110Z,9.50
2023-11-14T19:00:54.169Z,9.23
2023-11-14T19:03:21.696Z,8.93
2023-11-14T19:05:49.257Z,9.28
2023-11-14T19:08:16.724Z,9.29
2023-11-14T19:10:47.305Z,8.48
2023-11-14T19:13:14.949Z,9.45
2023-11-14T19:15:44.314Z,9.24
2023-11-14T19:18:14.145Z,8.97
2023-11-14T19:20:59.289Z,9.55
2023-11-14T19:23:42.444Z,9.76
2023-11-14T19:26:12.364Z,8.18
2023-11-14T19:28:41.197Z,9.23
2023-11-14T19:31:08.539Z,9.32
2023-11-14T19:33:35.888Z,9.50
2023-11-14T19:36:06.734Z,9.07
2023-11-14T19:38:37.503Z,8.78
2023-11-14T19:41:05.239Z,7.92
2023-11-14T19:43:33.661Z,9.09
2023-11-14T19:46:03.340Z,9.51
2023-11-14T19:48:30.826Z,8.92
2023-11-14T19:50:58.146Z,9.47
2023-11-14T19:53:25.636Z,9.04
2023-11-14T19:55:52.966Z,9.12
2023-11-14T19:58:20.178Z,9.01
2023-11-14T20:00:47.506Z,8.73
2023-11-14T20:03:14.900Z,8.89
2023-11-14T20:05:42.259Z,8.98
2023-11-14T20:08:09.492Z,9.15
2023-11-14T20:10:36.696Z,9.34
2023-11-14T20:13:04.180Z,9.32
2023-11-14T20:15:31.464Z,9.41
2023-11-14T20:17:58.776Z,9.31
2023-11-14T20:20:26.769Z,8.42
2023-11-14T20:22:54.156Z,9.06
2023-11-14T20:25:21.494Z,9.11
2023-11-14T20:27:50.295Z,7.84
2023-11-14T20:30:18.068Z,8.66
2023-11-14T20:32:45.609Z,7.45
2023-11-14T20:35:13.193Z,7.98
2023-11-14T20:37:40.755Z,8.53
2023-11-14T20:40:08.854Z,8.84
2023-11-14T20:42:36.491Z,8.56
2023-11-14T20:45:04.381Z,8.58
2023-11-14T20:47:33.665Z,8.62
2023-11-14T20:50:00.980Z,7.45
2023-11-14T20:52:28.373Z,8.71
2023-11-14T20:54:55.617Z,8.86
2023-11-14T20:57:22.892Z,7.99
2023-11-14T20:59:50.598Z,8.34
2023-11-14T21:02:17.745Z,8.59
2023-11-14T21:04:45.129Z,8.87
2023-11-14T21:07:12.349Z,8.77
2023-11-14T21:09:39.932Z,8.23
2023-11-14T21:12:07.587Z,7.97
2023-11-14T21:14:35.013Z,8.78
2023-11-14T21:17:02.379Z,7.90
2023-11-14T21:19:29.963Z,8.43
2023-11-14T21:21:57.139Z,8.52
2023-11-14T21:24:24.501Z,8.86
2023-11-14T21:26:52.436Z,8.65
2023-11-14T21:29:19.728Z,8.30
2023-11-14T21:31:48.229Z,8.23
2023-11-14T21:34:15.624Z,8.68
2023-11-14T21:36:43.453Z,8.18
2023-11-14T21:39:10.593Z,8.61
2023-11-14T21:41:37.968Z,7.96
2023-11-14T21:44:07.029Z,8.72
2023-11-14T21:46:35.092Z,8.69
2023-11-14T21:49:03.231Z,8.42
2023-11-14T21:51:31.218Z,8.56
2023-11-14T21:53:58.694Z,8.63
2023-11-14T21:56:25.941Z,8.42
2023-11-14T21:58:53.648Z,7.92
2023-11-14T22:01:22.142Z,8.05
2023-11-14T22:03:49.649Z,8.55
2023-11-14T22:06:17.912Z,8.00
2023-11-14T22:08:45.824Z,8.22
2023-11-14T22:11:13.238Z,8.54
2023-11-14T22:13:40.578Z,8.09
2023-11-14T22:16:08.107Z,7.75
2023-11-14T22:18:38.488Z,7.64
2023-11-14T22:21:06.260Z,8.25
2023-11-14T22:23:35.896Z,8.43
2023-11-14T22:26:05.272Z,7.98
2023-11-14T22:28:32.796Z,8.44
2023-11-14T22:31:00.003Z,6.90
2023-11-14T22:33:27.312Z,8.41
2023-11-14T22:35:54.823Z,8.17
2023-11-14T22:38:22.782Z,7.93
2023-11-14T22:40:50.040Z,7.95
2023-11-14T22:43:17.582Z,8.50
2023-11-14T22:45:44.892Z,8.30
2023-11-14T22:48:13.198Z,7.81
2023-11-14T22:50:47.030Z,8.37
2023-11-14T22:53:15.267Z,8.32
2023-11-14T22:55:42.732Z,8.28
2023-11-14T22:58:10.893Z,8.27
2023-11-14T23:00:43.685Z,8.03
2023-11-14T23:03:18.750Z,8.07
2023-11-14T23:05:49.111Z,7.58
2023-11-14T23:08:16.382Z,8.17
2023-11-14T23:10:46.579Z,7.80
2023-11-14T23:13:14.119Z,7.46
2023-11-14T23:15:41.360Z,8.15
2023-11-14T23:18:12.102Z,8.11
2023-11-14T23:20:40.798Z,7.91
2023-11-14T23:23:08.808Z,7.33
2023-11-14T23:25:36.152Z,8.08
2023-11-14T23:28:05.252Z,8.06
2023-11-14T23:30:33.582Z,7.96
2023-11-14T23:33:00.954Z,8.13
2023-11-14T23:35:28.252Z,8.31
2023-11-14T23:37:55.889Z,8.32
2023-11-14T23:40:25.093Z,7.96
2023-11-14T23:42:53.885Z,7.73
2023-11-14T23:45:21.622Z,7.71
2023-11-14T23:47:48.872Z,8.03
2023-11-14T23:50:16.310Z,6.62
2023-11-14T23:52:43.530Z,8.11
2023-11-14T23:55:11.304Z,8.22
2023-11-14T23:57:40.923Z,8.06
